sensor_id;sensor_type;location;lat;lon;timestamp;P1;durP1;ratioP1;P2;durP2;ratioP2
9465;SDS011;4771;48.726;9.006;2023-08-20T00:01:43;9.82;;;6.20;;
9465;SDS011;4771;48.726;9.006;2023-08-20T00:04:10;7.38;;;6.15;;
9465;SDS011;4771;48.726;9.006;2023-08-20T00:06:39;9.48;;;6.22;;
9465;SDS011;4771;48.726;9.006;2023-08-20T00:09:09;6.85;;;6.13;;
9465;SDS011;4771;48.726;9.006;2023-08-20T00:11:36;10.20;;;7.05;;
9465;SDS011;4771;48.726;9.006;2023-08-20T00:14:03;8.43;;;6.40;;
9465;SDS011;4771;48.726;9.006;2023-08-20T00:16:30;8.63;;;6.45;;
9465;SDS011;4771;48.726;9.006;2023-08-20T00:18:58;7.10;;;5.70;;
9465;SDS011;4771;48.726;9.006;2023-08-20T00:21:25;7.68;;;6.25;;
9465;SDS011;4771;48.726;9.006;2023-08-20T00:23:53;9.50;;;6.20;;
9465;SDS011;4771;48.726;9.006;2023-08-20T00:26:22;6.65;;;5.93;;
9465;SDS011;4771;48.726;9.006;2023-08-20T00:28:49;8.32;;;6.47;;
9465;SDS011;4771;48.726;9.006;2023-08-20T00:31:16;9.35;;;6.70;;
9465;SDS011;4771;48.726;9.006;2023-08-20T00:33:43;8.93;;;6.55;;
9465;SDS011;4771;48.726;9.006;2023-08-20T00:36:10;11.13;;;5.93;;
9465;SDS011;4771;48.726;9.006;2023-08-20T00:38:37;9.85;;;6.35;;
9465;SDS011;4771;48.726;9.006;2023-08-20T00:41:03;9.27;;;6.78;;
9465;SDS011;4771;48.726;9.006;2023-08-20T00:43:32;8.50;;;6.40;;
9465;SDS011;4771;48.726;9.006;2023-08-20T00:45:58;7.22;;;5.95;;
9465;SDS011;4771;48.726;9.006;2023-08-20T00:48:26;8.25;;;6.82;;
9465;SDS011;4771;48.726;9.006;2023-08-20T00:50:53;8.10;;;6.40;;
9465;SDS011;4771;48.726;9.006;2023-08-20T00:53:20;11.40;;;6.13;;
9465;SDS011;4771;48.726;9.006;2023-08-20T00:55:47;9.68;;;6.32;;
9465;SDS011;4771;48.726;9.006;2023-08-20T00:58:14;8.40;;;6.15;;
9465;SDS011;4771;48.726;9.006;2023-08-20T01:00:42;7.53;;;6.20;;
9465;SDS011;4771;48.726;9.006;2023-08-20T01:03:09;8.35;;;6.40;;
9465;SDS011;4771;48.726;9.006;2023-08-20T01:05:39;7.22;;;6.53;;
9465;SDS011;4771;48.726;9.006;2023-08-20T01:08:28;6.63;;;6.03;;
9465;SDS011;4771;48.726;9.006;2023-08-20T01:11:03;10.60;;;6.47;;
9465;SDS011;4771;48.726;9.006;2023-08-20T01:13:35;7.63;;;6.85;;
9465;SDS011;4771;48.726;9.006;2023-08-20T01:16:03;7.10;;;6.40;;
9465;SDS011;4771;48.726;9.006;2023-08-20T01:18:30;7.95;;;6.68;;
9465;SDS011;4771;48.726;9.006;2023-08-20T01:20:58;6.43;;;5.78;;
9465;SDS011;4771;48.726;9.006;2023-08-20T01:26:37;9.38;;;6.63;;
9465;SDS011;4771;48.726;9.006;2023-08-20T01:29:23;8.32;;;6.72;;
9465;SDS011;4771;48.726;9.006;2023-08-20T01:31:51;7.55;;;6.57;;
9465;SDS011;4771;48.726;9.006;2023-08-20T01:34:20;9.77;;;6.60;;
9465;SDS011;4771;48.726;9.006;2023-08-20T01:36:47;10.48;;;6.38;;
9465;SDS011;4771;48.726;9.006;2023-08-20T01:39:15;8.38;;;6.53;;
9465;SDS011;4771;48.726;9.006;2023-08-20T01:41:43;6.97;;;6.28;;
9465;SDS011;4771;48.726;9.006;2023-08-20T01:44:10;7.63;;;6.30;;
9465;SDS011;4771;48.726;9.006;2023-08-20T01:46:39;8.75;;;6.43;;
9465;SDS011;4771;48.726;9.006;2023-08-20T01:49:05;7.22;;;6.47;;
9465;SDS011;4771;48.726;9.006;2023-08-20T01:51:32;11.38;;;7.10;;
9465;SDS011;4771;48.726;9.006;2023-08-20T01:54:01;9.13;;;6.45;;
9465;SDS011;4771;48.726;9.006;2023-08-20T01:56:28;9.65;;;6.82;;
9465;SDS011;4771;48.726;9.006;2023-08-20T01:58:55;9.43;;;6.47;;
9465;SDS011;4771;48.726;9.006;2023-08-20T02:01:22;7.53;;;6.82;;
9465;SDS011;4771;48.726;9.006;2023-08-20T02:03:51;9.50;;;6.63;;
9465;SDS011;4771;48.726;9.006;2023-08-20T02:06:18;8.63;;;6.80;;
9465;SDS011;4771;48.726;9.006;2023-08-20T02:08:46;8.77;;;6.57;;
9465;SDS011;4771;48.726;9.006;2023-08-20T02:11:13;8.38;;;6.72;;
9465;SDS011;4771;48.726;9.006;2023-08-20T02:13:40;8.73;;;6.65;;
9465;SDS011;4771;48.726;9.006;2023-08-20T02:16:06;8.00;;;6.72;;
9465;SDS011;4771;48.726;9.006;2023-08-20T02:18:33;8.52;;;6.80;;
9465;SDS011;4771;48.726;9.006;2023-08-20T02:21:02;10.57;;;6.90;;
9465;SDS011;4771;48.726;9.006;2023-08-20T02:23:28;7.30;;;6.43;;
9465;SDS011;4771;48.726;9.006;2023-08-20T02:25:56;8.15;;;7.35;;
9465;SDS011;4771;48.726;9.006;2023-08-20T02:28:23;8.27;;;6.70;;
9465;SDS011;4771;48.726;9.006;2023-08-20T02:30:49;10.40;;;6.85;;
9465;SDS011;4771;48.726;9.006;2023-08-20T02:33:16;8.07;;;6.38;;
9465;SDS011;4771;48.726;9.006;2023-08-20T02:35:43;7.53;;;6.65;;
9465;SDS011;4771;48.726;9.006;2023-08-20T02:38:11;9.10;;;6.60;;
9465;SDS011;4771;48.726;9.006;2023-08-20T02:40:39;10.30;;;6.88;;
9465;SDS011;4771;48.726;9.006;2023-08-20T02:43:07;10.15;;;7.63;;
9465;SDS011;4771;48.726;9.006;2023-08-20T02:45:39;7.68;;;6.88;;
9465;SDS011;4771;48.726;9.006;2023-08-20T02:48:07;8.13;;;6.18;;
9465;SDS011;4771;48.726;9.006;2023-08-20T02:50:33;9.57;;;6.13;;
9465;SDS011;4771;48.726;9.006;2023-08-20T02:53:00;7.65;;;6.30;;
9465;SDS011;4771;48.726;9.006;2023-08-20T02:55:29;7.65;;;6.20;;
9465;SDS011;4771;48.726;9.006;2023-08-20T02:57:56;7.40;;;6.43;;
9465;SDS011;4771;48.726;9.006;2023-08-20T03:00:23;10.77;;;6.55;;
9465;SDS011;4771;48.726;9.006;2023-08-20T03:02:50;6.78;;;6.07;;
9465;SDS011;4771;48.726;9.006;2023-08-20T03:05:17;7.88;;;5.80;;
9465;SDS011;4771;48.726;9.006;2023-08-20T03:07:44;6.70;;;5.93;;
9465;SDS011;4771;48.726;9.006;2023-08-20T03:10:11;6.93;;;5.88;;
9465;SDS011;4771;48.726;9.006;2023-08-20T03:12:39;7.03;;;6.20;;
9465;SDS011;4771;48.726;9.006;2023-08-20T03:15:07;6.90;;;6.13;;
9465;SDS011;4771;48.726;9.006;2023-08-20T03:17:34;8.75;;;6.22;;
9465;SDS011;4771;48.726;9.006;2023-08-20T03:20:01;8.25;;;6.30;;
9465;SDS011;4771;48.726;9.006;2023-08-20T03:22:31;7.78;;;6.57;;
9465;SDS011;4771;48.726;9.006;2023-08-20T03:24:58;6.80;;;6.10;;
9465;SDS011;4771;48.726;9.006;2023-08-20T03:27:25;6.80;;;6.20;;
9465;SDS011;4771;48.726;9.006;2023-08-20T03:29:54;6.82;;;6.22;;
9465;SDS011;4771;48.726;9.006;2023-08-20T03:32:21;8.57;;;6.68;;
9465;SDS011;4771;48.726;9.006;2023-08-20T03:34:48;7.30;;;6.35;;
9465;SDS011;4771;48.726;9.006;2023-08-20T03:37:16;8.30;;;7.25;;
9465;SDS011;4771;48.726;9.006;2023-08-20T03:39:42;7.78;;;6.45;;
9465;SDS011;4771;48.726;9.006;2023-08-20T03:42:10;9.27;;;7.13;;
9465;SDS011;4771;48.726;9.006;2023-08-20T03:44:36;8.70;;;6.30;;
9465;SDS011;4771;48.726;9.006;2023-08-20T03:47:05;10.63;;;6.78;;
9465;SDS011;4771;48.726;9.006;2023-08-20T03:49:32;7.10;;;6.40;;
9465;SDS011;4771;48.726;9.006;2023-08-20T03:51:59;7.40;;;6.55;;
9465;SDS011;4771;48.726;9.006;2023-08-20T03:54:27;8.25;;;6.90;;
9465;SDS011;4771;48.726;9.006;2023-08-20T03:56:54;9.93;;;6.32;;
9465;SDS011;4771;48.726;9.006;2023-08-20T03:59:21;8.40;;;6.55;;
9465;SDS011;4771;48.726;9.006;2023-08-20T04:01:48;7.45;;;6.72;;
9465;SDS011;4771;48.726;9.006;2023-08-20T04:04:16;7.32;;;6.05;;
9465;SDS011;4771;48.726;9.006;2023-08-20T04:06:43;8.65;;;6.85;;
9465;SDS011;4771;48.726;9.006;2023-08-20T04:09:10;9.82;;;6.53;;
9465;SDS011;4771;48.726;9.006;2023-08-20T04:11:37;9.82;;;6.55;;
9465;SDS011;4771;48.726;9.006;2023-08-20T04:14:04;7.15;;;6.53;;
9465;SDS011;4771;48.726;9.006;2023-08-20T04:16:31;9.90;;;7.10;;
9465;SDS011;4771;48.726;9.006;2023-08-20T04:18:58;10.10;;;6.30;;
9465;SDS011;4771;48.726;9.006;2023-08-20T04:21:26;10.10;;;7.03;;
9465;SDS011;4771;48.726;9.006;2023-08-20T04:23:53;10.95;;;6.75;;
9465;SDS011;4771;48.726;9.006;2023-08-20T04:26:20;8.35;;;6.80;;
9465;SDS011;4771;48.726;9.006;2023-08-20T04:28:46;11.50;;;6.68;;
9465;SDS011;4771;48.726;9.006;2023-08-20T04:31:13;8.20;;;7.30;;
9465;SDS011;4771;48.726;9.006;2023-08-20T04:33:40;13.80;;;7.13;;
9465;SDS011;4771;48.726;9.006;2023-08-20T04:36:07;10.45;;;7.32;;
9465;SDS011;4771;48.726;9.006;2023-08-20T04:38:35;10.63;;;6.82;;
9465;SDS011;4771;48.726;9.006;2023-08-20T04:41:02;7.47;;;6.55;;
9465;SDS011;4771;48.726;9.006;2023-08-20T04:43:29;8.63;;;7.20;;
9465;SDS011;4771;48.726;9.006;2023-08-20T04:45:56;10.73;;;6.85;;
9465;SDS011;4771;48.726;9.006;2023-08-20T04:48:23;11.18;;;7.32;;
9465;SDS011;4771;48.726;9.006;2023-08-20T04:50:49;9.43;;;7.15;;
9465;SDS011;4771;48.726;9.006;2023-08-20T04:53:16;8.05;;;7.05;;
9465;SDS011;4771;48.726;9.006;2023-08-20T04:55:45;9.95;;;6.80;;
9465;SDS011;4771;48.726;9.006;2023-08-20T04:58:11;8.98;;;7.50;;
9465;SDS011;4771;48.726;9.006;2023-08-20T05:00:38;7.07;;;6.38;;
9465;SDS011;4771;48.726;9.006;2023-08-20T05:03:05;8.55;;;7.20;;
9465;SDS011;4771;48.726;9.006;2023-08-20T05:05:32;11.43;;;8.05;;
9465;SDS011;4771;48.726;9.006;2023-08-20T05:07:59;10.10;;;7.13;;
9465;SDS011;4771;48.726;9.006;2023-08-20T05:10:26;9.43;;;7.40;;
9465;SDS011;4771;48.726;9.006;2023-08-20T05:12:54;7.95;;;7.15;;
9465;SDS011;4771;48.726;9.006;2023-08-20T05:15:21;9.18;;;7.50;;
9465;SDS011;4771;48.726;9.006;2023-08-20T05:17:48;11.57;;;7.28;;
9465;SDS011;4771;48.726;9.006;2023-08-20T05:20:14;8.68;;;7.20;;
9465;SDS011;4771;48.726;9.006;2023-08-20T05:22:41;9.65;;;7.72;;
9465;SDS011;4771;48.726;9.006;2023-08-20T05:25:08;9.00;;;7.20;;
9465;SDS011;4771;48.726;9.006;2023-08-20T05:27:35;11.23;;;7.90;;
9465;SDS011;4771;48.726;9.006;2023-08-20T05:30:04;10.48;;;8.10;;
9465;SDS011;4771;48.726;9.006;2023-08-20T05:32:33;10.48;;;7.78;;
9465;SDS011;4771;48.726;9.006;2023-08-20T05:35:00;8.80;;;7.00;;
9465;SDS011;4771;48.726;9.006;2023-08-20T05:37:29;8.68;;;7.78;;
9465;SDS011;4771;48.726;9.006;2023-08-20T05:39:56;10.02;;;8.40;;
9465;SDS011;4771;48.726;9.006;2023-08-20T05:42:23;8.95;;;7.35;;
9465;SDS011;4771;48.726;9.006;2023-08-20T05:44:50;8.70;;;7.80;;
9465;SDS011;4771;48.726;9.006;2023-08-20T05:47:18;9.32;;;7.80;;
9465;SDS011;4771;48.726;9.006;2023-08-20T05:49:45;11.93;;;8.60;;
9465;SDS011;4771;48.726;9.006;2023-08-20T05:52:11;10.48;;;8.40;;
9465;SDS011;4771;48.726;9.006;2023-08-20T05:54:38;8.98;;;8.07;;
9465;SDS011;4771;48.726;9.006;2023-08-20T05:57:05;10.65;;;7.78;;
9465;SDS011;4771;48.726;9.006;2023-08-20T05:59:32;10.40;;;7.93;;
9465;SDS011;4771;48.726;9.006;2023-08-20T06:02:00;8.98;;;7.88;;
9465;SDS011;4771;48.726;9.006;2023-08-20T06:04:32;9.05;;;8.15;;
9465;SDS011;4771;48.726;9.006;2023-08-20T06:06:59;10.40;;;8.77;;
9465;SDS011;4771;48.726;9.006;2023-08-20T06:09:26;9.43;;;8.15;;
9465;SDS011;4771;48.726;9.006;2023-08-20T06:11:53;9.80;;;7.50;;
9465;SDS011;4771;48.726;9.006;2023-08-20T06:14:20;11.55;;;7.97;;
9465;SDS011;4771;48.726;9.006;2023-08-20T06:16:47;10.73;;;8.10;;
9465;SDS011;4771;48.726;9.006;2023-08-20T06:19:14;8.70;;;7.78;;
9465;SDS011;4771;48.726;9.006;2023-08-20T06:21:42;8.85;;;7.95;;
9465;SDS011;4771;48.726;9.006;2023-08-20T06:24:09;9.65;;;7.03;;
9465;SDS011;4771;48.726;9.006;2023-08-20T06:26:36;10.27;;;7.38;;
9465;SDS011;4771;48.726;9.006;2023-08-20T06:29:03;11.70;;;7.95;;
9465;SDS011;4771;48.726;9.006;2023-08-20T06:31:29;8.57;;;7.47;;
9465;SDS011;4771;48.726;9.006;2023-08-20T06:33:56;9.88;;;8.02;;
9465;SDS011;4771;48.726;9.006;2023-08-20T06:36:23;8.70;;;7.75;;
9465;SDS011;4771;48.726;9.006;2023-08-20T06:38:51;9.63;;;7.75;;
9465;SDS011;4771;48.726;9.006;2023-08-20T06:41:18;10.52;;;8.75;;
9465;SDS011;4771;48.726;9.006;2023-08-20T06:43:45;12.32;;;11.02;;
9465;SDS011;4771;48.726;9.006;2023-08-20T06:46:12;9.25;;;8.30;;
9465;SDS011;4771;48.726;9.006;2023-08-20T06:48:39;9.13;;;8.15;;
9465;SDS011;4771;48.726;9.006;2023-08-20T06:51:10;9.90;;;7.97;;
9465;SDS011;4771;48.726;9.006;2023-08-20T06:53:38;9.10;;;8.20;;
9465;SDS011;4771;48.726;9.006;2023-08-20T06:56:07;11.10;;;7.85;;
9465;SDS011;4771;48.726;9.006;2023-08-20T06:58:34;12.52;;;8.75;;
9465;SDS011;4771;48.726;9.006;2023-08-20T07:01:01;10.50;;;8.30;;
9465;SDS011;4771;48.726;9.006;2023-08-20T07:03:33;11.75;;;9.32;;
9465;SDS011;4771;48.726;9.006;2023-08-20T07:06:01;9.23;;;8.15;;
9465;SDS011;4771;48.726;9.006;2023-08-20T07:08:28;10.57;;;8.63;;
9465;SDS011;4771;48.726;9.006;2023-08-20T07:10:55;10.43;;;8.82;;
9465;SDS011;4771;48.726;9.006;2023-08-20T07:13:23;12.48;;;8.75;;
9465;SDS011;4771;48.726;9.006;2023-08-20T07:15:58;10.95;;;8.40;;
9465;SDS011;4771;48.726;9.006;2023-08-20T07:18:25;11.25;;;8.13;;
9465;SDS011;4771;48.726;9.006;2023-08-20T07:20:52;11.15;;;8.93;;
9465;SDS011;4771;48.726;9.006;2023-08-20T07:23:19;12.45;;;8.82;;
9465;SDS011;4771;48.726;9.006;2023-08-20T07:25:46;10.55;;;8.65;;
9465;SDS011;4771;48.726;9.006;2023-08-20T07:28:13;11.88;;;9.52;;
9465;SDS011;4771;48.726;9.006;2023-08-20T07:30:47;11.05;;;8.73;;
9465;SDS011;4771;48.726;9.006;2023-08-20T07:33:14;11.77;;;8.73;;
9465;SDS011;4771;48.726;9.006;2023-08-20T07:35:41;10.57;;;8.23;;
9465;SDS011;4771;48.726;9.006;2023-08-20T07:38:08;11.32;;;8.90;;
9465;SDS011;4771;48.726;9.006;2023-08-20T07:40:34;11.30;;;9.18;;
9465;SDS011;4771;48.726;9.006;2023-08-20T07:43:02;10.40;;;8.45;;
9465;SDS011;4771;48.726;9.006;2023-08-20T07:45:29;11.57;;;8.77;;
9465;SDS011;4771;48.726;9.006;2023-08-20T07:47:57;12.15;;;8.30;;
9465;SDS011;4771;48.726;9.006;2023-08-20T07:50:24;9.55;;;8.27;;
9465;SDS011;4771;48.726;9.006;2023-08-20T07:52:51;9.73;;;8.05;;
9465;SDS011;4771;48.726;9.006;2023-08-20T07:55:18;12.20;;;8.70;;
9465;SDS011;4771;48.726;9.006;2023-08-20T07:57:45;13.95;;;8.60;;
9465;SDS011;4771;48.726;9.006;2023-08-20T08:00:14;9.27;;;7.90;;
9465;SDS011;4771;48.726;9.006;2023-08-20T08:02:41;13.00;;;8.38;;
9465;SDS011;4771;48.726;9.006;2023-08-20T08:05:10;10.40;;;8.27;;
9465;SDS011;4771;48.726;9.006;2023-08-20T08:07:38;9.50;;;7.47;;
9465;SDS011;4771;48.726;9.006;2023-08-20T08:10:05;9.23;;;7.97;;
9465;SDS011;4771;48.726;9.006;2023-08-20T08:12:33;9.77;;;7.85;;
9465;SDS011;4771;48.726;9.006;2023-08-20T08:15:00;11.40;;;8.23;;
9465;SDS011;4771;48.726;9.006;2023-08-20T08:17:27;9.02;;;7.55;;
9465;SDS011;4771;48.726;9.006;2023-08-20T08:19:54;9.18;;;8.23;;
9465;SDS011;4771;48.726;9.006;2023-08-20T08:22:23;8.10;;;7.15;;
9465;SDS011;4771;48.726;9.006;2023-08-20T08:24:50;12.23;;;8.27;;
9465;SDS011;4771;48.726;9.006;2023-08-20T08:27:17;11.23;;;7.60;;
9465;SDS011;4771;48.726;9.006;2023-08-20T08:29:43;10.93;;;9.35;;
9465;SDS011;4771;48.726;9.006;2023-08-20T08:32:10;13.18;;;9.60;;
9465;SDS011;4771;48.726;9.006;2023-08-20T08:34:37;9.40;;;8.40;;
9465;SDS011;4771;48.726;9.006;2023-08-20T08:37:04;11.15;;;7.90;;
9465;SDS011;4771;48.726;9.006;2023-08-20T08:39:32;10.18;;;7.72;;
9465;SDS011;4771;48.726;9.006;2023-08-20T08:42:00;8.98;;;7.30;;
9465;SDS011;4771;48.726;9.006;2023-08-20T08:44:29;7.50;;;6.75;;
9465;SDS011;4771;48.726;9.006;2023-08-20T08:46:58;9.30;;;7.68;;
9465;SDS011;4771;48.726;9.006;2023-08-20T08:49:25;7.80;;;6.80;;
9465;SDS011;4771;48.726;9.006;2023-08-20T08:51:54;8.35;;;6.68;;
9465;SDS011;4771;48.726;9.006;2023-08-20T08:54:23;8.60;;;7.78;;
9465;SDS011;4771;48.726;9.006;2023-08-20T08:56:52;7.95;;;7.15;;
9465;SDS011;4771;48.726;9.006;2023-08-20T08:59:19;8.43;;;6.57;;
9465;SDS011;4771;48.726;9.006;2023-08-20T09:01:46;9.80;;;6.85;;
9465;SDS011;4771;48.726;9.006;2023-08-20T09:04:13;7.85;;;6.38;;
9465;SDS011;4771;48.726;9.006;2023-08-20T09:06:46;7.28;;;6.05;;
9465;SDS011;4771;48.726;9.006;2023-08-20T09:09:16;8.27;;;6.72;;
9465;SDS011;4771;48.726;9.006;2023-08-20T09:11:43;9.85;;;6.38;;
9465;SDS011;4771;48.726;9.006;2023-08-20T09:14:21;9.88;;;5.78;;
9465;SDS011;4771;48.726;9.006;2023-08-20T09:16:59;9.13;;;6.45;;
9465;SDS011;4771;48.726;9.006;2023-08-20T09:19:27;7.88;;;5.97;;
9465;SDS011;4771;48.726;9.006;2023-08-20T09:21:55;10.88;;;6.55;;
9465;SDS011;4771;48.726;9.006;2023-08-20T09:24:26;8.30;;;5.53;;
9465;SDS011;4771;48.726;9.006;2023-08-20T09:26:58;9.30;;;5.55;;
9465;SDS011;4771;48.726;9.006;2023-08-20T09:29:26;10.73;;;5.25;;
9465;SDS011;4771;48.726;9.006;2023-08-20T09:32:00;7.18;;;6.40;;
9465;SDS011;4771;48.726;9.006;2023-08-20T09:34:35;11.82;;;6.72;;
9465;SDS011;4771;48.726;9.006;2023-08-20T09:37:03;9.07;;;5.90;;
9465;SDS011;4771;48.726;9.006;2023-08-20T09:39:30;8.15;;;6.00;;
9465;SDS011;4771;48.726;9.006;2023-08-20T09:41:57;8.05;;;5.90;;
9465;SDS011;4771;48.726;9.006;2023-08-20T09:44:27;12.25;;;5.93;;
9465;SDS011;4771;48.726;9.006;2023-08-20T09:46:58;6.97;;;5.68;;
9465;SDS011;4771;48.726;9.006;2023-08-20T09:49:25;6.30;;;5.55;;
9465;SDS011;4771;48.726;9.006;2023-08-20T09:51:56;7.72;;;6.43;;
9465;SDS011;4771;48.726;9.006;2023-08-20T09:54:27;9.38;;;5.75;;
9465;SDS011;4771;48.726;9.006;2023-08-20T09:57:01;7.10;;;5.20;;
9465;SDS011;4771;48.726;9.006;2023-08-20T09:59:31;7.97;;;5.47;;
9465;SDS011;4771;48.726;9.006;2023-08-20T10:02:00;6.32;;;5.70;;
9465;SDS011;4771;48.726;9.006;2023-08-20T10:04:28;11.75;;;5.50;;
9465;SDS011;4771;48.726;9.006;2023-08-20T10:06:56;6.22;;;5.55;;
9465;SDS011;4771;48.726;9.006;2023-08-20T10:09:24;9.93;;;5.68;;
9465;SDS011;4771;48.726;9.006;2023-08-20T10:12:01;7.82;;;5.72;;
9465;SDS011;4771;48.726;9.006;2023-08-20T10:14:28;9.35;;;6.18;;
9465;SDS011;4771;48.726;9.006;2023-08-20T10:16:57;6.00;;;5.40;;
9465;SDS011;4771;48.726;9.006;2023-08-20T10:19:24;7.95;;;5.05;;
9465;SDS011;4771;48.726;9.006;2023-08-20T10:21:52;7.57;;;5.00;;
9465;SDS011;4771;48.726;9.006;2023-08-20T10:24:19;6.60;;;5.20;;
9465;SDS011;4771;48.726;9.006;2023-08-20T10:26:46;7.25;;;5.40;;
9465;SDS011;4771;48.726;9.006;2023-08-20T10:32:11;8.45;;;5.78;;
9465;SDS011;4771;48.726;9.006;2023-08-20T10:34:39;8.90;;;5.55;;
9465;SDS011;4771;48.726;9.006;2023-08-20T10:37:15;10.23;;;5.28;;
9465;SDS011;4771;48.726;9.006;2023-08-20T10:39:53;7.70;;;4.65;;
9465;SDS011;4771;48.726;9.006;2023-08-20T10:42:21;9.05;;;5.07;;
9465;SDS011;4771;48.726;9.006;2023-08-20T10:45:04;6.53;;;4.70;;
9465;SDS011;4771;48.726;9.006;2023-08-20T10:47:37;6.82;;;4.93;;
9465;SDS011;4771;48.726;9.006;2023-08-20T10:50:08;6.38;;;4.68;;
9465;SDS011;4771;48.726;9.006;2023-08-20T10:52:38;12.07;;;5.38;;
9465;SDS011;4771;48.726;9.006;2023-08-20T10:55:06;7.07;;;4.90;;
9465;SDS011;4771;48.726;9.006;2023-08-20T10:57:34;8.15;;;4.97;;
9465;SDS011;4771;48.726;9.006;2023-08-20T11:00:04;8.48;;;4.90;;
9465;SDS011;4771;48.726;9.006;2023-08-20T11:02:36;6.47;;;4.78;;
9465;SDS011;4771;48.726;9.006;2023-08-20T11:05:07;6.03;;;4.65;;
9465;SDS011;4771;48.726;9.006;2023-08-20T11:07:43;6.20;;;4.40;;
9465;SDS011;4771;48.726;9.006;2023-08-20T11:10:12;9.43;;;4.35;;
9465;SDS011;4771;48.726;9.006;2023-08-20T11:12:40;7.95;;;4.63;;
9465;SDS011;4771;48.726;9.006;2023-08-20T11:15:09;5.22;;;4.53;;
9465;SDS011;4771;48.726;9.006;2023-08-20T11:17:41;5.13;;;4.28;;
9465;SDS011;4771;48.726;9.006;2023-08-20T11:20:09;6.70;;;4.38;;
9465;SDS011;4771;48.726;9.006;2023-08-20T11:22:38;7.22;;;4.55;;
9465;SDS011;4771;48.726;9.006;2023-08-20T11:25:06;4.85;;;4.43;;
9465;SDS011;4771;48.726;9.006;2023-08-20T11:27:36;5.57;;;4.40;;
9465;SDS011;4771;48.726;9.006;2023-08-20T11:30:07;8.98;;;4.50;;
9465;SDS011;4771;48.726;9.006;2023-08-20T11:32:36;5.70;;;4.05;;
9465;SDS011;4771;48.726;9.006;2023-08-20T11:35:03;7.22;;;4.32;;
9465;SDS011;4771;48.726;9.006;2023-08-20T11:37:31;5.82;;;4.05;;
9465;SDS011;4771;48.726;9.006;2023-08-20T11:39:59;8.93;;;4.45;;
9465;SDS011;4771;48.726;9.006;2023-08-20T11:42:26;7.38;;;4.30;;
9465;SDS011;4771;48.726;9.006;2023-08-20T11:44:55;5.95;;;4.25;;
9465;SDS011;4771;48.726;9.006;2023-08-20T11:47:22;4.75;;;4.28;;
9465;SDS011;4771;48.726;9.006;2023-08-20T11:50:02;9.05;;;4.53;;
9465;SDS011;4771;48.726;9.006;2023-08-20T11:52:30;5.80;;;4.40;;
9465;SDS011;4771;48.726;9.006;2023-08-20T11:54:58;6.47;;;4.10;;
9465;SDS011;4771;48.726;9.006;2023-08-20T11:57:26;6.47;;;4.18;;
9465;SDS011;4771;48.726;9.006;2023-08-20T11:59:54;6.40;;;4.82;;
9465;SDS011;4771;48.726;9.006;2023-08-20T12:02:24;8.73;;;4.32;;
9465;SDS011;4771;48.726;9.006;2023-08-20T12:04:54;6.00;;;4.30;;
9465;SDS011;4771;48.726;9.006;2023-08-20T12:07:25;11.55;;;9.50;;
9465;SDS011;4771;48.726;9.006;2023-08-20T12:09:53;9.23;;;6.07;;
9465;SDS011;4771;48.726;9.006;2023-08-20T12:12:20;7.97;;;4.20;;
9465;SDS011;4771;48.726;9.006;2023-08-20T12:14:47;7.18;;;4.40;;
9465;SDS011;4771;48.726;9.006;2023-08-20T12:17:16;8.02;;;4.40;;
9465;SDS011;4771;48.726;9.006;2023-08-20T12:19:44;7.13;;;4.85;;
9465;SDS011;4771;48.726;9.006;2023-08-20T12:22:11;9.68;;;4.80;;
9465;SDS011;4771;48.726;9.006;2023-08-20T12:24:39;9.10;;;4.47;;
9465;SDS011;4771;48.726;9.006;2023-08-20T12:27:06;7.57;;;4.57;;
9465;SDS011;4771;48.726;9.006;2023-08-20T12:29:33;8.57;;;4.75;;
9465;SDS011;4771;48.726;9.006;2023-08-20T12:32:00;6.28;;;4.50;;
9465;SDS011;4771;48.726;9.006;2023-08-20T12:34:29;8.60;;;4.70;;
9465;SDS011;4771;48.726;9.006;2023-08-20T12:36:56;10.80;;;4.60;;
9465;SDS011;4771;48.726;9.006;2023-08-20T12:39:23;10.27;;;4.40;;
9465;SDS011;4771;48.726;9.006;2023-08-20T12:41:51;6.72;;;4.35;;
9465;SDS011;4771;48.726;9.006;2023-08-20T12:44:18;7.78;;;4.57;;
9465;SDS011;4771;48.726;9.006;2023-08-20T12:46:45;8.52;;;4.70;;
9465;SDS011;4771;48.726;9.006;2023-08-20T12:49:12;6.75;;;4.38;;
9465;SDS011;4771;48.726;9.006;2023-08-20T12:51:39;6.45;;;4.55;;
9465;SDS011;4771;48.726;9.006;2023-08-20T12:54:06;7.10;;;4.68;;
9465;SDS011;4771;48.726;9.006;2023-08-20T12:56:33;8.25;;;4.35;;
9465;SDS011;4771;48.726;9.006;2023-08-20T12:59:01;5.18;;;4.32;;
9465;SDS011;4771;48.726;9.006;2023-08-20T13:01:29;7.15;;;4.30;;
9465;SDS011;4771;48.726;9.006;2023-08-20T13:03:59;5.90;;;4.20;;
9465;SDS011;4771;48.726;9.006;2023-08-20T13:06:26;8.77;;;4.43;;
9465;SDS011;4771;48.726;9.006;2023-08-20T13:08:54;8.50;;;4.70;;
9465;SDS011;4771;48.726;9.006;2023-08-20T13:11:21;7.50;;;4.30;;
9465;SDS011;4771;48.726;9.006;2023-08-20T13:13:50;6.80;;;4.57;;
9465;SDS011;4771;48.726;9.006;2023-08-20T13:16:19;5.50;;;4.13;;
9465;SDS011;4771;48.726;9.006;2023-08-20T13:18:47;9.15;;;4.20;;
9465;SDS011;4771;48.726;9.006;2023-08-20T13:21:14;5.03;;;4.15;;
9465;SDS011;4771;48.726;9.006;2023-08-20T13:23:41;5.53;;;3.97;;
9465;SDS011;4771;48.726;9.006;2023-08-20T13:26:09;5.60;;;4.13;;
9465;SDS011;4771;48.726;9.006;2023-08-20T13:28:38;6.93;;;4.50;;
9465;SDS011;4771;48.726;9.006;2023-08-20T13:31:05;8.15;;;4.63;;
9465;SDS011;4771;48.726;9.006;2023-08-20T13:33:36;7.68;;;4.25;;
9465;SDS011;4771;48.726;9.006;2023-08-20T13:36:03;7.45;;;4.60;;
9465;SDS011;4771;48.726;9.006;2023-08-20T13:38:32;9.30;;;4.25;;
9465;SDS011;4771;48.726;9.006;2023-08-20T13:40:59;5.32;;;4.43;;
9465;SDS011;4771;48.726;9.006;2023-08-20T13:43:26;5.35;;;4.25;;
9465;SDS011;4771;48.726;9.006;2023-08-20T13:45:53;7.20;;;4.68;;
9465;SDS011;4771;48.726;9.006;2023-08-20T13:48:20;7.90;;;4.47;;
9465;SDS011;4771;48.726;9.006;2023-08-20T13:50:48;7.10;;;4.40;;
9465;SDS011;4771;48.726;9.006;2023-08-20T13:53:15;10.82;;;4.65;;
9465;SDS011;4771;48.726;9.006;2023-08-20T13:55:42;5.43;;;3.95;;
9465;SDS011;4771;48.726;9.006;2023-08-20T13:58:09;4.95;;;4.32;;
9465;SDS011;4771;48.726;9.006;2023-08-20T14:00:36;8.07;;;4.10;;
9465;SDS011;4771;48.726;9.006;2023-08-20T14:03:03;7.03;;;4.30;;
9465;SDS011;4771;48.726;9.006;2023-08-20T14:05:31;5.30;;;4.10;;
9465;SDS011;4771;48.726;9.006;2023-08-20T14:07:59;7.30;;;3.90;;
9465;SDS011;4771;48.726;9.006;2023-08-20T14:10:26;6.03;;;4.45;;
9465;SDS011;4771;48.726;9.006;2023-08-20T14:12:52;6.18;;;3.97;;
9465;SDS011;4771;48.726;9.006;2023-08-20T14:15:19;7.95;;;4.05;;
9465;SDS011;4771;48.726;9.006;2023-08-20T14:17:46;7.78;;;3.92;;
9465;SDS011;4771;48.726;9.006;2023-08-20T14:20:13;6.35;;;4.25;;
9465;SDS011;4771;48.726;9.006;2023-08-20T14:22:40;6.40;;;4.20;;
9465;SDS011;4771;48.726;9.006;2023-08-20T14:25:08;5.47;;;3.97;;
9465;SDS011;4771;48.726;9.006;2023-08-20T14:27:35;4.82;;;3.75;;
9465;SDS011;4771;48.726;9.006;2023-08-20T14:30:02;6.50;;;3.85;;
9465;SDS011;4771;48.726;9.006;2023-08-20T14:32:30;6.88;;;4.00;;
9465;SDS011;4771;48.726;9.006;2023-08-20T14:34:58;6.32;;;3.72;;
9465;SDS011;4771;48.726;9.006;2023-08-20T14:37:25;6.63;;;4.25;;
9465;SDS011;4771;48.726;9.006;2023-08-20T14:39:52;6.95;;;4.20;;
9465;SDS011;4771;48.726;9.006;2023-08-20T14:42:20;7.65;;;4.07;;
9465;SDS011;4771;48.726;9.006;2023-08-20T14:44:47;6.60;;;4.25;;
9465;SDS011;4771;48.726;9.006;2023-08-20T14:47:14;6.93;;;4.10;;
9465;SDS011;4771;48.726;9.006;2023-08-20T14:49:41;4.82;;;3.92;;
9465;SDS011;4771;48.726;9.006;2023-08-20T14:52:07;6.20;;;3.70;;
9465;SDS011;4771;48.726;9.006;2023-08-20T14:54:34;9.57;;;4.35;;
9465;SDS011;4771;48.726;9.006;2023-08-20T14:57:01;10.32;;;4.28;;
9465;SDS011;4771;48.726;9.006;2023-08-20T14:59:30;7.40;;;3.85;;
9465;SDS011;4771;48.726;9.006;2023-08-20T15:01:57;5.65;;;3.90;;
9465;SDS011;4771;48.726;9.006;2023-08-20T15:04:24;5.43;;;4.20;;
9465;SDS011;4771;48.726;9.006;2023-08-20T15:06:50;5.93;;;3.90;;
9465;SDS011;4771;48.726;9.006;2023-08-20T15:09:17;6.97;;;4.10;;
9465;SDS011;4771;48.726;9.006;2023-08-20T15:11:45;6.28;;;4.25;;
9465;SDS011;4771;48.726;9.006;2023-08-20T15:14:12;5.15;;;3.83;;
9465;SDS011;4771;48.726;9.006;2023-08-20T15:16:40;5.95;;;4.28;;
9465;SDS011;4771;48.726;9.006;2023-08-20T15:19:07;5.95;;;3.90;;
9465;SDS011;4771;48.726;9.006;2023-08-20T15:21:34;7.22;;;4.20;;
9465;SDS011;4771;48.726;9.006;2023-08-20T15:24:01;6.00;;;3.70;;